Time;durP1;ratioP1;P1;durP2;ratioP2;P2;SDS_P1;SDS_P2;PMS_P1;PMS_P2;Temp;Humidity;BMP_temperature;BMP_pressure;BME280_temperature;BME280_humidity;BME280_pressure;Samples;Min_cycle;Max_cycle;Signal;HPM_P1;HPM_P2
2022/12/11 07:36:23;;;;;;;1.77;1.67;;;2.50;99.90;1.90;100715.00;;;;5046561;28;20218;-69
2022/12/11 07:38:49;;;;;;;2.67;2.03;;;2.50;99.90;1.40;100704.00;;;;5047378;28;20277;-70
2022/12/11 07:41:16;;;;;;;0.70;0.70;;;2.30;99.90;1.60;100703.00;;;;5022003;28;20209;-69
2022/12/11 07:43:48;;;;;;;0.40;0.40;;;2.30;99.90;1.70;100715.00;;;;5054323;28;20233;-70
2022/12/11 07:46:24;;;;;;;0.73;0.73;;;2.40;99.90;1.70;100717.00;;;;5050770;28;20572;-70
2022/12/11 07:48:50;;;;;;;3.70;3.50;;;2.40;99.90;1.70;100660.00;;;;5041131;28;20618;-70
2022/12/11 07:51:29;;;;;;;1.60;1.47;;;2.40;99.90;1.70;100706.00;;;;5020803;28;20198;-69
2022/12/11 07:53:59;;;;;;;0.40;0.40;;;2.40;99.90;1.80;100704.00;;;;5023839;28;20202;-70
2022/12/11 07:56:27;;;;;;;1.87;1.80;;;2.40;99.90;1.70;100720.00;;;;5034748;28;20199;-68
2022/12/11 07:59:03;;;;;;;6.33;3.27;;;2.30;99.90;1.60;100720.00;;;;5012872;28;20236;-68
2022/12/11 08:01:36;;;;;;;1.50;1.40;;;2.30;99.90;1.50;100718.00;;;;5016850;28;20545;-70
2022/12/11 08:04:05;;;;;;;12.70;5.63;;;2.30;99.90;1.50;100712.00;;;;5013795;28;20208;-69
2022/12/11 08:06:35;;;;;;;1.77;1.67;;;2.30;99.90;1.50;100703.00;;;;5041008;28;20288;-69
2022/12/11 08:09:10;;;;;;;0.90;0.90;;;2.30;99.90;1.80;100722.00;;;;5018068;28;20561;-68
2022/12/11 08:11:50;;;;;;;1.40;1.33;;;2.40;99.90;2.00;100660.00;;;;5040247;28;20202;-68
2022/12/11 08:14:16;;;;;;;1.27;1.17;;;2.60;99.90;1.80;100712.00;;;;5050842;28;20681;-69
2022/12/11 08:16:56;;;;;;;6.80;4.40;;;2.50;99.90;1.60;100735.00;;;;5022388;28;20273;-68
2022/12/11 08:19:22;;;;;;;5.50;5.00;;;2.40;99.90;1.60;100708.00;;;;5026760;28;20209;-69
2022/12/11 08:21:48;;;;;;;4.30;3.30;;;2.40;99.90;1.80;100721.00;;;;5017934;28;20244;-69
2022/12/11 08:24:19;;;;;;;1.50;1.40;;;2.40;99.90;1.90;100728.00;;;;5033401;28;20663;-69
2022/12/11 08:26:47;;;;;;;2.63;2.30;;;2.50;99.90;1.60;100724.00;;;;5029180;28;20206;-69
2022/12/11 08:29:14;;;;;;;3.40;2.37;;;2.50;99.90;2.20;100732.00;;;;5017226;28;20647;-68
2022/12/11 08:31:41;;;;;;;1.13;1.13;;;2.60;99.90;2.20;100717.00;;;;5040127;28;20260;-70
2022/12/11 08:34:12;;;;;;;1.97;1.87;;;2.70;99.90;2.20;100724.00;;;;5022575;28;20202;-69
2022/12/11 08:36:38;;;;;;;0.40;0.40;;;2.70;99.90;2.40;100719.00;;;;5020015;28;20207;-69
2022/12/11 08:39:04;;;;;;;1.23;1.23;;;2.70;99.90;2.50;100694.00;;;;5056692;28;20209;-69
2022/12/11 08:41:30;;;;;;;0.43;0.43;;;2.90;99.90;1.90;100709.00;;;;5053675;28;20201;-69
2022/12/11 08:44:02;;;;;;;2.63;2.47;;;2.60;99.90;1.80;100708.00;;;;5053067;28;20634;-69
2022/12/11 08:46:34;;;;;;;1.47;1.40;;;2.50;99.90;1.80;100723.00;;;;5057407;28;20188;-69
2022/12/11 08:49:06;;;;;;;1.13;1.07;;;2.50;99.90;1.60;100711.00;;;;5017727;28;20585;-68
2022/12/11 08:51:35;;;;;;;1.73;1.63;;;2.40;99.90;1.90;100710.00;;;;5034890;28;20194;-68
2022/12/11 08:54:01;;;;;;;0.50;0.50;;;2.40;99.90;2.00;100708.00;;;;5032928;28;20194;-72
2022/12/11 08:56:31;;;;;;;2.27;2.13;;;2.50;99.90;2.40;100720.00;;;;5037964;28;20193;-71
2022/12/11 08:59:13;;;;;;;0.47;0.47;;;2.70;99.90;2.00;100664.00;;;;5045661;28;20572;-71
2022/12/11 09:01:42;;;;;;;2.43;1.70;;;2.60;99.90;1.60;100692.00;;;;5020201;28;20576;-71
2022/12/11 09:04:11;;;;;;;1.00;1.00;;;2.40;99.90;2.50;100720.00;;;;5049640;28;20193;-72
2022/12/11 09:06:43;;;;;;;1.27;1.27;;;2.60;99.90;1.50;100715.00;;;;5017620;28;20195;-71
2022/12/11 09:09:13;;;;;;;3.90;3.23;;;2.40;99.90;1.40;100720.00;;;;5051637;28;20225;-71
2022/12/11 09:11:43;;;;;;;1.17;1.17;;;2.30;99.90;1.80;100666.00;;;;5034873;28;20201;-71
2022/12/11 09:14:09;;;;;;;0.30;0.30;;;2.40;99.90;1.50;100715.00;;;;5053214;28;20586;-72
2022/12/11 09:16:39;;;;;;;3.67;2.87;;;2.30;99.90;1.70;100711.00;;;;5049126;28;20707;-72
2022/12/11 09:19:12;;;;;;;0.50;0.50;;;2.40;99.90;1.60;100718.00;;;;5049917;28;20673;-72
2022/12/11 09:21:45;;;;;;;0.90;0.90;;;2.30;99.90;1.50;100724.00;;;;5036039;28;20229;-72
2022/12/11 09:24:20;;;;;;;2.53;1.67;;;2.20;99.90;1.60;100701.00;;;;5029977;28;20214;-72
2022/12/11 09:26:47;;;;;;;2.60;2.40;;;2.30;99.90;1.80;100721.00;;;;5037607;28;20201;-73
2022/12/11 09:29:13;;;;;;;3.17;2.97;;;2.40;99.90;1.50;100722.00;;;;5064066;28;20186;-73
2022/12/11 09:31:39;;;;;;;4.17;1.93;;;2.30;99.90;1.80;100709.00;;;;5042783;28;20277;-74
2022/12/11 09:34:08;;;;;;;1.43;1.43;;;2.40;99.90;1.80;100734.00;;;;5052789;28;20187;-73
2022/12/11 09:36:34;;;;;;;3.90;3.17;;;2.50;99.90;1.30;100714.00;;;;5047301;28;20228;-73
2022/12/11 09:39:06;;;;;;;4.77;3.47;;;2.30;99.90;1.50;100699.00;;;;5028015;28;20637;-73
2022/12/11 09:41:54;;;;;;;2.90;2.23;;;2.20;99.90;1.40;100722.00;;;;5024621;28;20198;-73
2022/12/11 09:44:42;;;;;;;1.27;1.17;;;2.20;99.90;1.60;100713.00;;;;5018102;28;20199;-73
2022/12/11 09:47:29;;;;;;;3.70;1.27;;;2.30;99.90;1.80;100723.00;;;;5008564;28;20192;-74
2022/12/11 09:50:34;;;;;;;2.10;2.00;;;2.40;99.90;1.60;100717.00;;;;5020230;28;20245;-73
2022/12/11 09:53:31;;;;;;;1.53;1.43;;;2.50;99.90;1.50;100709.00;;;;5010584;28;20741;-73
2022/12/11 09:56:06;;;;;;;6.07;4.77;;;2.40;99.90;1.40;100658.00;;;;5021130;28;20277;-73
2022/12/11 09:58:48;;;;;;;3.57;3.27;;;2.20;99.90;1.40;100707.00;;;;5015165;28;20190;-73
2022/12/11 10:01:59;;;;;;;6.57;4.07;;;2.20;99.90;1.70;100705.00;;;;5016835;28;20200;-73
2022/12/11 10:05:03;;;;;;;3.30;1.73;;;2.30;99.90;1.60;100708.00;;;;5026577;28;20260;-73
2022/12/11 10:07:51;;;;;;;3.17;2.97;;;2.30;99.90;1.50;100702.00;;;;5020115;28;20279;-73
2022/12/11 10:10:56;;;;;;;1.13;1.13;;;2.20;99.90;1.80;100715.00;;;;5011614;28;20716;-73
2022/12/11 10:13:34;;;;;;;8.50;5.67;;;2.30;99.90;1.50;100650.00;;;;5017249;28;20215;-73
2022/12/11 10:16:21;;;;;;;0.30;0.30;;;2.40;99.90;2.00;100711.00;;;;5020651;28;20268;-73
2022/12/11 10:19:19;;;;;;;1.07;0.97;;;2.50;99.90;1.90;100689.00;;;;5013768;28;20207;-73
2022/12/11 10:33:59;;;;;;;3.27;2.87;;;2.10;99.90;1.60;100691.00;;;;5078853;27;20569;-73
2022/12/11 10:36:39;;;;;;;2.07;1.97;;;2.30;99.90;2.00;100682.00;;;;5057263;28;20182;-62
2022/12/11 10:39:18;;;;;;;5.87;4.83;;;2.60;99.90;1.70;100681.00;;;;5044181;28;20243;-63
2022/12/11 10:41:49;;;;;;;2.30;2.20;;;2.60;99.90;1.70;100662.00;;;;5057206;28;20184;-64
2022/12/11 10:44:25;;;;;;;7.87;4.23;;;2.50;99.90;1.60;100683.00;;;;5057877;28;20186;-70
2022/12/11 10:47:10;;;;;;;7.93;3.37;;;2.50;99.90;1.80;100623.00;;;;5058314;28;20263;-62
2022/12/11 10:49:41;;;;;;;0.87;0.87;;;2.50;99.90;1.80;100685.00;;;;5056058;28;20184;-62
2022/12/11 10:52:21;;;;;;;0.50;0.50;;;2.50;99.90;2.10;100688.00;;;;5059081;28;20204;-71
2022/12/11 10:55:15;;;;;;;2.23;1.60;;;2.60;99.90;2.50;100681.00;;;;5060063;28;20177;-71
2022/12/11 10:57:42;;;;;;;1.30;1.27;;;2.80;99.90;2.20;100678.00;;;;5044666;28;20192;-71
2022/12/11 11:00:33;;;;;;;0.30;0.30;;;2.80;99.90;2.70;100682.00;;;;5057172;28;20185;-71
2022/12/11 11:03:01;;;;;;;0.67;0.67;;;2.80;99.90;1.80;100682.00;;;;5057071;28;20198;-70
2022/12/11 11:05:37;;;;;;;3.37;2.43;;;2.70;99.90;1.90;100673.00;;;;5039510;28;20563;-71
2022/12/11 11:08:20;;;;;;;2.70;2.50;;;2.60;99.90;1.50;100681.00;;;;5056860;28;20192;-69
2022/12/11 11:11:00;;;;;;;2.20;1.80;;;2.50;99.90;1.80;100682.00;;;;5057448;28;20204;-68
2022/12/11 11:13:30;;;;;;;3.60;0.70;;;2.50;99.90;1.60;100669.00;;;;5056547;28;20193;-68
2022/12/11 11:16:11;;;;;;;2.53;2.17;;;2.50;99.90;1.90;100671.00;;;;5041017;28;20186;-68
2022/12/11 11:18:39;;;;;;;3.57;3.37;;;2.50;99.90;1.90;100666.00;;;;5051468;28;20178;-71
2022/12/11 11:21:06;;;;;;;4.17;1.80;;;2.60;99.90;1.80;100669.00;;;;5048223;28;20178;-71
2022/12/11 11:23:33;;;;;;;0.40;0.40;;;2.60;99.90;2.20;100657.00;;;;5047761;28;20555;-68
2022/12/11 11:26:01;;;;;;;0.30;0.30;;;2.70;99.90;2.80;100665.00;;;;5049142;28;20236;-70
2022/12/11 11:28:32;;;;;;;1.50;1.17;;;3.00;99.90;2.80;100669.00;;;;5047886;28;20269;-70
2022/12/11 11:31:09;;;;;;;2.63;0.93;;;3.20;99.90;2.50;100665.00;;;;5047907;28;20293;-70
2022/12/11 11:33:47;;;;;;;3.60;2.70;;;3.10;99.90;2.10;100663.00;;;;5048089;28;20198;-70
2022/12/11 11:36:23;;;;;;;1.30;1.20;;;2.80;99.90;1.90;100665.00;;;;5047616;28;20197;-70
2022/12/11 11:39:16;;;;;;;1.80;1.53;;;2.70;99.90;2.60;100663.00;;;;5046783;28;20205;-70
2022/12/11 11:42:20;;;;;;;2.30;2.13;;;2.80;99.90;2.00;100667.00;;;;5043562;28;20226;-70
2022/12/11 11:45:17;;;;;;;1.47;1.37;;;2.80;99.90;2.60;100656.00;;;;5026041;28;20200;-70
2022/12/11 11:48:55;;;;;;;1.63;1.63;;;2.90;99.90;2.40;100662.00;;;;5024989;28;20206;-70
2022/12/11 11:51:40;;;;;;;1.33;1.23;;;2.80;99.90;1.90;100655.00;;;;5012775;28;20226;-70
2022/12/11 11:54:34;;;;;;;0.70;0.70;;;2.70;99.90;2.10;100656.00;;;;5033743;28;20179;-70
2022/12/11 11:57:14;;;;;;;0.63;0.63;;;2.80;99.90;2.10;100668.00;;;;5033070;28;20194;-70
2022/12/11 11:59:51;;;;;;;0.60;0.60;;;2.80;99.90;2.40;100657.00;;;;5017868;28;20216;-70
2022/12/11 12:02:18;;;;;;;0.53;0.53;;;2.90;99.90;2.50;100659.00;;;;5029236;28;20186;-70
2022/12/11 12:04:50;;;;;;;0.40;0.40;;;2.90;99.90;2.50;100666.00;;;;5034153;28;20186;-70
2022/12/11 12:07:28;;;;;;;0.20;0.20;;;2.90;99.90;2.90;100607.00;;;;5016629;28;20201;-71
2022/12/11 12:10:18;;;;;;;6.43;2.30;;;3.10;99.90;3.00;100655.00;;;;5034901;28;20183;-71
2022/12/11 12:13:25;;;;;;;3.00;2.77;;;3.20;99.90;2.80;100655.00;;;;5026635;28;20264;-70
2022/12/11 12:15:59;;;;;;;1.07;1.07;;;3.20;99.90;2.30;100650.00;;;;5025298;28;20210;-71
2022/12/11 12:19:00;;;;;;;1.90;1.27;;;3.10;99.90;2.70;100636.00;;;;5032805;28;20183;-70
2022/12/11 12:21:32;;;;;;;1.63;1.50;;;3.00;99.90;3.60;100652.00;;;;5034589;28;20206;-70
2022/12/11 12:24:25;;;;;;;3.47;3.20;;;3.50;99.90;3.10;100661.00;;;;5034205;28;20648;-71
2022/12/11 12:27:28;;;;;;;0.63;0.60;;;3.60;99.90;3.30;100658.00;;;;5030242;28;20194;-70
2022/12/11 12:30:13;;;;;;;2.00;1.90;;;3.50;99.90;2.90;100658.00;;;;5034449;28;20216;-70
2022/12/11 12:33:17;;;;;;;0.40;0.40;;;3.50;99.90;2.30;100655.00;;;;5066882;28;20263;-71
2022/12/11 12:36:34;;;;;;;1.03;1.03;;;3.10;99.90;2.50;100589.00;;;;5034366;28;20184;-70
2022/12/11 12:39:10;;;;;;;0.20;0.20;;;3.00;99.90;3.10;100637.00;;;;5033234;28;20222;-70
2022/12/11 12:42:00;;;;;;;2.50;1.47;;;3.10;99.90;2.70;100649.00;;;;5033420;28;20191;-71
2022/12/11 12:44:40;;;;;;;0.30;0.30;;;3.10;99.90;3.50;100649.00;;;;5034689;28;20183;-70
2022/12/11 12:47:14;;;;;;;0.30;0.30;;;3.40;99.90;2.80;100650.00;;;;5034177;28;20527;-70
2022/12/11 12:49:49;;;;;;;3.80;1.80;;;3.30;99.90;3.10;100650.00;;;;5017072;28;20214;-71
2022/12/11 12:52:37;;;;;;;0.50;0.50;;;3.30;99.90;3.00;100658.00;;;;5024183;28;20213;-71
2022/12/11 12:55:27;;;;;;;0.57;0.57;;;3.50;99.90;2.60;100650.00;;;;5025921;28;20187;-71
2022/12/11 12:58:48;;;;;;;5.80;3.63;;;3.20;99.90;2.60;100638.00;;;;5016417;28;20241;-71
2022/12/11 13:01:16;;;;;;;1.20;1.20;;;3.10;99.90;2.70;100643.00;;;;5028516;28;20213;-71
2022/12/11 13:04:05;;;;;;;1.60;1.50;;;3.10;99.90;2.90;100645.00;;;;5033886;28;20179;-69
2022/12/11 13:06:55;;;;;;;3.50;2.37;;;3.20;99.90;2.80;100639.00;;;;5032746;28;20183;-71
2022/12/11 13:09:26;;;;;;;0.60;0.60;;;3.10;99.90;2.90;100645.00;;;;5032558;28;20182;-72
2022/12/11 13:12:10;;;;;;;3.07;0.90;;;3.20;99.90;2.60;100639.00;;;;5033086;28;20187;-72
2022/12/11 13:14:56;;;;;;;0.30;0.30;;;3.10;99.90;2.30;100634.00;;;;5032866;28;20194;-72
2022/12/11 13:17:42;;;;;;;1.20;1.17;;;3.10;99.90;2.40;100637.00;;;;5024338;28;20199;-69
2022/12/11 13:20:24;;;;;;;0.30;0.30;;;2.90;99.90;2.90;100639.00;;;;5061724;28;20184;-72
2022/12/11 13:23:59;;;;;;;0.30;0.30;;;3.00;99.90;2.80;100640.00;;;;5013923;28;20192;-72
2022/12/11 13:26:48;;;;;;;0.20;0.20;;;3.30;99.90;2.50;100649.00;;;;5027949;28;20198;-71
2022/12/11 13:29:41;;;;;;;0.57;0.57;;;3.10;99.90;2.50;100630.00;;;;5023957;28;20193;-71
2022/12/11 13:32:12;;;;;;;0.30;0.30;;;3.00;99.90;2.40;100587.00;;;;5063666;28;20217;-71
2022/12/11 13:34:41;;;;;;;0.20;0.20;;;3.00;99.90;2.90;100631.00;;;;5033144;28;20550;-72
2022/12/11 13:37:42;;;;;;;3.50;2.23;;;3.00;99.90;3.40;100643.00;;;;5014817;28;20546;-71
2022/12/11 13:40:21;;;;;;;0.97;0.77;;;3.30;99.90;2.60;100649.00;;;;5019275;28;20245;-72
2022/12/11 13:42:52;;;;;;;0.30;0.30;;;3.30;99.90;2.40;100639.00;;;;5017948;28;20294;-71
2022/12/11 13:45:33;;;;;;;0.30;0.30;;;3.00;99.90;2.90;100652.00;;;;5032642;28;20187;-71
2022/12/11 13:48:00;;;;;;;1.43;1.43;;;3.10;99.90;3.20;100638.00;;;;5057990;28;20233;-74
2022/12/11 13:50:33;;;;;;;6.80;4.20;;;3.30;99.90;3.20;100647.00;;;;5031087;28;20248;-73
2022/12/11 13:53:12;;;;;;;2.60;1.30;;;3.40;99.90;3.30;100651.00;;;;5034804;28;20202;-74
2022/12/11 13:55:44;;;;;;;4.20;1.63;;;3.60;99.90;2.30;100643.00;;;;5039227;28;20190;-73
2022/12/11 13:58:34;;;;;;;1.10;1.10;;;3.20;99.90;2.40;100597.00;;;;5039732;28;20186;-73
2022/12/11 14:01:30;;;;;;;1.87;1.77;;;3.10;99.90;2.10;100646.00;;;;5040513;28;20201;-73
2022/12/11 14:04:12;;;;;;;3.43;2.20;;;2.90;99.90;2.10;100581.00;;;;5037578;28;20281;-63
2022/12/11 14:06:42;;;;;;;0.80;0.80;;;2.70;99.90;2.40;100648.00;;;;5037666;28;20265;-73
2022/12/11 14:09:08;;;;;;;1.00;1.00;;;2.80;99.90;2.30;100612.00;;;;5037814;28;20586;-73
2022/12/11 14:11:41;;;;;;;2.03;1.60;;;2.80;99.90;1.90;100565.00;;;;5023067;28;20202;-73
2022/12/11 14:14:49;;;;;;;1.30;1.00;;;2.70;99.90;1.60;100627.00;;;;5039324;28;20202;-71
2022/12/11 14:17:26;;;;;;;0.50;0.50;;;2.50;99.90;2.20;100624.00;;;;5038918;28;20268;-72
2022/12/11 14:20:00;;;;;;;0.30;0.30;;;2.60;99.90;2.10;100626.00;;;;5023543;28;20222;-71
2022/12/11 14:22:45;;;;;;;3.80;2.37;;;2.70;99.90;2.30;100639.00;;;;5019073;28;20642;-72
2022/12/11 14:25:26;;;;;;;1.50;1.40;;;2.80;99.90;2.60;100611.00;;;;5024181;28;20186;-73
2022/12/11 14:27:55;;;;;;;2.07;1.93;;;2.90;99.90;2.60;100628.00;;;;5032927;28;20182;-65
2022/12/11 14:30:26;;;;;;;0.40;0.40;;;3.00;99.90;2.30;100636.00;;;;5031638;28;20182;-72
2022/12/11 14:33:00;;;;;;;2.50;2.30;;;2.90;99.90;2.40;100628.00;;;;5031107;28;20268;-72
2022/12/11 14:35:34;;;;;;;0.40;0.40;;;3.00;99.90;2.30;100622.00;;;;5035462;28;20283;-71
2022/12/11 14:38:23;;;;;;;0.43;0.43;;;2.90;99.90;2.60;100624.00;;;;5038149;28;20179;-71
2022/12/11 14:41:16;;;;;;;1.60;1.60;;;3.00;99.90;2.10;100618.00;;;;5041099;28;20186;-72
2022/12/11 14:43:53;;;;;;;0.40;0.40;;;3.00;99.90;2.00;100625.00;;;;5039075;28;20198;-71
2022/12/11 14:46:36;;;;;;;0.67;0.67;;;2.70;99.90;2.10;100626.00;;;;5039428;28;20638;-71
2022/12/11 14:49:39;;;;;;;1.07;1.07;;;2.70;99.90;3.00;100625.00;;;;5040809;28;20183;-71
2022/12/11 14:52:12;;;;;;;0.47;0.47;;;2.90;99.90;3.00;100629.00;;;;5040827;28;20207;-70
2022/12/11 14:55:15;;;;;;;0.60;0.60;;;3.20;99.90;2.70;100620.00;;;;5030851;28;20552;-70
2022/12/11 14:57:49;;;;;;;0.50;0.50;;;3.10;99.90;3.20;100636.00;;;;5039661;28;20289;-70
2022/12/11 15:00:37;;;;;;;0.50;0.50;;;3.30;99.90;3.30;100637.00;;;;5040299;28;20255;-70
2022/12/11 15:03:06;;;;;;;1.17;1.17;;;3.40;99.90;3.50;100652.00;;;;5040169;28;20172;-70
2022/12/11 15:05:33;;;;;;;1.33;1.23;;;3.70;99.90;2.60;100652.00;;;;5040534;28;20281;-71
2022/12/11 15:08:31;;;;;;;0.40;0.40;;;3.40;99.90;3.00;100652.00;;;;5039263;28;20182;-71
2022/12/11 15:11:01;;;;;;;1.53;1.43;;;3.30;99.90;2.10;100655.00;;;;5040574;28;20194;-70
2022/12/11 15:13:27;;;;;;;0.97;0.97;;;3.00;99.90;2.10;100653.00;;;;5040169;28;20230;-70
2022/12/11 15:16:01;;;;;;;1.37;1.37;;;2.80;99.90;2.30;100638.00;;;;5039750;28;20721;-70
2022/12/11 15:18:34;;;;;;;0.50;0.50;;;2.80;99.90;2.40;100646.00;;;;5039579;28;20556;-71
2022/12/11 15:21:05;;;;;;;2.20;2.10;;;2.80;99.90;2.60;100635.00;;;;5044351;28;20190;-70
2022/12/11 15:23:57;;;;;;;1.73;1.63;;;2.90;99.90;2.70;100644.00;;;;5035469;28;20179;-71
2022/12/11 15:26:46;;;;;;;1.10;1.00;;;3.00;99.90;2.60;100645.00;;;;5034640;28;20209;-71
2022/12/11 15:29:38;;;;;;;1.77;1.67;;;3.10;99.90;2.10;100647.00;;;;5036462;28;20507;-72
2022/12/11 15:32:12;;;;;;;1.33;1.33;;;2.80;99.90;2.40;100655.00;;;;5034665;28;20554;-71
2022/12/11 15:34:46;;;;;;;1.33;0.70;;;2.80;99.90;2.20;100643.00;;;;5035607;28;20668;-71
2022/12/11 15:37:26;;;;;;;0.40;0.40;;;2.80;99.90;2.00;100651.00;;;;5032909;28;20186;-71
2022/12/11 15:39:54;;;;;;;1.17;1.17;;;2.70;99.90;1.80;100624.00;;;;5030249;28;20198;-70
2022/12/11 15:42:49;;;;;;;0.53;0.53;;;2.50;99.90;2.10;100636.00;;;;5034133;28;20191;-73
2022/12/11 15:45:19;;;;;;;1.40;1.33;;;2.60;99.90;2.10;100630.00;;;;5034774;28;20194;-73
2022/12/11 15:47:51;;;;;;;0.97;0.90;;;2.70;99.90;2.00;100636.00;;;;5035368;28;20182;-73
2022/12/11 15:50:24;;;;;;;0.40;0.40;;;2.70;99.90;1.80;100646.00;;;;5022026;28;20659;-72
2022/12/11 15:53:05;;;;;;;13.27;6.27;;;2.50;99.90;1.80;100648.00;;;;5065185;28;20289;-74
2022/12/11 15:55:54;;;;;;;4.05;3.75;;;2.50;99.90;2.30;100654.00;;;;5033793;28;20893;-72
2022/12/11 15:58:23;;;;;;;1.43;1.07;;;2.70;99.90;2.40;100652.00;;;;5056936;28;20646;-72
2022/12/11 16:00:59;;;;;;;0.83;0.83;;;2.70;99.90;2.50;100631.00;;;;5031495;28;20643;-71
2022/12/11 16:03:25;;;;;;;0.70;0.70;;;2.80;99.90;2.30;100652.00;;;;5020124;28;20187;-71
2022/12/11 16:05:52;;;;;;;0.60;0.60;;;2.80;99.90;2.50;100662.00;;;;5030287;28;20179;-71
2022/12/11 16:08:25;;;;;;;0.93;0.93;;;2.80;99.90;2.80;100640.00;;;;5017787;28;20214;-71
2022/12/11 16:11:14;;;;;;;0.50;0.50;;;2.90;99.90;2.70;100632.00;;;;5033248;28;20634;-71
2022/12/11 16:13:43;;;;;;;1.13;1.13;;;3.00;99.90;2.70;100639.00;;;;5035116;28;20199;-71
2022/12/11 16:16:09;;;;;;;0.77;0.77;;;3.00;99.90;2.30;100636.00;;;;5016872;28;20271;-71
2022/12/11 16:18:35;;;;;;;0.90;0.90;;;2.90;99.90;2.10;100649.00;;;;5049728;28;20245;-72
2022/12/11 16:21:05;;;;;;;0.40;0.40;;;2.80;99.90;2.00;100645.00;;;;5033839;28;20183;-72
2022/12/11 16:23:34;;;;;;;0.97;0.97;;;2.70;99.90;2.00;100656.00;;;;5034062;28;20277;-72
2022/12/11 16:26:07;;;;;;;0.93;0.93;;;2.60;99.90;1.90;100658.00;;;;5033969;28;20183;-72
2022/12/11 16:28:35;;;;;;;4.23;4.00;;;2.60;99.90;2.50;100646.00;;;;5032843;28;20183;-72
2022/12/11 16:31:05;;;;;;;0.70;0.70;;;2.80;99.90;2.60;100648.00;;;;5050130;28;20205;-72
2022/12/11 16:33:32;;;;;;;0.50;0.50;;;2.90;99.90;2.40;100643.00;;;;5040668;28;20578;-71
2022/12/11 16:35:58;;;;;;;2.00;1.90;;;2.80;99.90;2.30;100571.00;;;;5049588;28;20603;-72
2022/12/11 16:38:24;;;;;;;2.87;2.57;;;2.70;99.90;2.20;100634.00;;;;5038000;28;20195;-72
2022/12/11 16:40:59;;;;;;;2.57;1.07;;;2.80;99.90;2.10;100576.00;;;;5034773;28;20246;-72
2022/12/11 16:43:31;;;;;;;1.07;1.07;;;2.70;99.90;2.40;100636.00;;;;5029832;28;20232;-72
2022/12/11 16:45:57;;;;;;;3.27;3.03;;;2.80;99.90;2.00;100639.00;;;;5016919;28;20190;-71
2022/12/11 16:48:26;;;;;;;2.63;2.53;;;2.70;99.90;2.10;100637.00;;;;5033908;28;20182;-72
2022/12/11 16:51:07;;;;;;;1.20;1.20;;;2.60;99.90;2.50;100638.00;;;;5033708;28;20183;-71
2022/12/11 16:53:33;;;;;;;1.10;1.10;;;2.70;99.90;2.40;100640.00;;;;5017754;28;20206;-72
2022/12/11 16:56:11;;;;;;;5.13;4.93;;;2.90;99.90;2.40;100648.00;;;;5029840;28;20191;-72
2022/12/11 16:58:37;;;;;;;0.50;0.50;;;2.80;99.90;2.60;100638.00;;;;5024936;28;20661;-72
2022/12/11 17:01:15;;;;;;;1.07;1.07;;;2.80;99.90;2.30;100561.00;;;;5034691;28;20665;-72
2022/12/11 17:03:42;;;;;;;2.43;2.27;;;2.80;99.90;2.40;100646.00;;;;5033001;28;20179;-72
2022/12/11 17:06:12;;;;;;;2.83;1.37;;;2.80;99.90;2.10;100625.00;;;;5033129;28;20332;-72
2022/12/11 17:08:55;;;;;;;3.87;2.43;;;2.80;99.90;2.30;100641.00;;;;5039157;28;20279;-72
2022/12/11 17:12:07;;;;;;;1.50;1.50;;;2.80;99.90;2.50;100642.00;;;;5041149;28;20237;-72
2022/12/11 17:14:41;;;;;;;1.00;1.00;;;2.80;99.90;2.30;100647.00;;;;5042236;28;20193;-72
2022/12/11 17:17:10;;;;;;;0.40;0.40;;;2.80;99.90;2.30;100650.00;;;;5040283;28;20194;-72
2022/12/11 17:20:14;;;;;;;4.07;3.77;;;2.70;99.90;2.30;100639.00;;;;5049142;28;20634;-71
2022/12/11 17:22:44;;;;;;;0.70;0.70;;;2.80;99.90;2.00;100615.00;;;;5035857;28;20292;-71
2022/12/11 17:25:18;;;;;;;4.47;4.07;;;2.70;99.90;2.30;100622.00;;;;5033751;28;20175;-73
2022/12/11 17:27:44;;;;;;;1.20;1.20;;;2.60;99.90;2.30;100623.00;;;;5030504;28;20187;-73
2022/12/11 17:30:12;;;;;;;1.40;1.40;;;2.80;99.90;2.00;100631.00;;;;5028644;28;20218;-74
2022/12/11 17:33:05;;;;;;;1.47;1.40;;;2.60;99.90;1.90;100603.00;;;;5050647;28;20229;-74
2022/12/11 17:35:32;;;;;;;1.20;1.20;;;2.50;99.90;2.00;100634.00;;;;5032053;28;20202;-74
2022/12/11 17:38:16;;;;;;;1.50;1.50;;;2.60;99.90;2.20;100566.00;;;;5016054;28;20186;-74
2022/12/11 17:40:54;;;;;;;2.87;2.60;;;2.60;99.90;2.20;100558.00;;;;5032402;28;20186;-74
2022/12/11 17:43:28;;;;;;;1.00;1.00;;;2.60;99.90;2.20;100619.00;;;;5031802;28;20232;-74
2022/12/11 17:45:56;;;;;;;1.93;1.83;;;2.60;99.90;2.30;100635.00;;;;5028941;28;20183;-74
2022/12/11 17:48:32;;;;;;;1.27;1.27;;;2.70;99.90;2.30;100629.00;;;;5032269;28;20277;-74
2022/12/11 17:52:08;;;;;;;2.03;1.77;;;2.70;99.90;2.40;100630.00;;;;5029747;28;20193;-74
2022/12/11 17:54:38;;;;;;;0.53;0.53;;;2.80;99.90;2.20;100633.00;;;;5032998;28;20198;-74
2022/12/11 17:57:24;;;;;;;0.87;0.87;;;2.60;99.90;2.00;100635.00;;;;5032229;28;20260;-74
2022/12/11 18:03:14;;;;;;;0.70;0.70;;;2.60;99.90;1.90;100560.00;;;;5032454;28;20198;-73
2022/12/11 18:06:25;;;;;;;2.10;2.00;;;2.50;99.90;1.80;100625.00;;;;5031913;28;20559;-68
2022/12/11 18:08:58;;;;;;;0.77;0.77;;;2.40;99.90;1.60;100553.00;;;;5023066;28;20265;-74
2022/12/11 18:11:24;;;;;;;2.50;2.30;;;2.30;99.90;1.60;100634.00;;;;5029275;28;20212;-73
2022/12/11 18:14:08;;;;;;;0.80;0.80;;;2.30;99.90;1.70;100633.00;;;;5030147;28;20186;-74
2022/12/11 18:17:26;;;;;;;2.77;2.57;;;2.40;99.90;1.70;100634.00;;;;5011607;28;20190;-74
2022/12/11 18:19:51;;;;;;;0.50;0.50;;;2.40;99.90;1.90;100633.00;;;;5012680;28;20190;-74
2022/12/11 18:22:20;;;;;;;0.60;0.60;;;2.40;99.90;1.60;100616.00;;;;5030819;28;20281;-73
2022/12/11 18:24:46;;;;;;;1.00;1.00;;;2.30;99.90;1.50;100623.00;;;;5015055;28;20170;-74
2022/12/11 18:27:15;;;;;;;2.67;2.57;;;2.20;99.90;1.60;100627.00;;;;5031311;28;20190;-74
2022/12/11 18:29:41;;;;;;;0.73;0.73;;;2.20;99.90;1.60;100562.00;;;;5019401;28;20812;-74
2022/12/11 18:32:28;;;;;;;0.90;0.90;;;2.20;99.90;1.60;100620.00;;;;5023758;28;20573;-73
2022/12/11 18:35:03;;;;;;;0.70;0.70;;;2.20;99.90;1.80;100624.00;;;;5014891;28;20293;-74
2022/12/11 18:37:36;;;;;;;3.10;1.90;;;2.20;99.90;1.70;100631.00;;;;5029188;28;20187;-74
2022/12/11 18:40:07;;;;;;;1.57;1.47;;;2.20;99.90;1.90;100640.00;;;;5015786;28;20179;-74
2022/12/11 18:42:36;;;;;;;2.50;2.30;;;2.30;99.90;1.70;100621.00;;;;5059796;28;20194;-74
2022/12/11 18:45:15;;;;;;;1.43;1.43;;;2.20;99.90;1.40;100641.00;;;;5031594;28;20546;-74
2022/12/11 18:47:43;;;;;;;0.50;0.50;;;2.10;99.90;1.40;100635.00;;;;5058659;28;20195;-74
2022/12/11 18:50:09;;;;;;;0.50;0.50;;;2.10;99.90;1.40;100638.00;;;;5031910;28;20182;-73
2022/12/11 18:52:35;;;;;;;1.20;1.20;;;2.00;99.90;1.80;100617.00;;;;5039925;28;20222;-74
2022/12/11 18:55:02;;;;;;;5.47;5.07;;;2.20;99.90;1.60;100625.00;;;;5035459;28;20183;-74
2022/12/11 18:57:28;;;;;;;0.93;0.93;;;2.20;99.90;1.40;100576.00;;;;5035985;28;20649;-73
2022/12/11 18:59:54;;;;;;;0.70;0.70;;;2.10;99.90;1.80;100646.00;;;;5029935;28;20186;-73
2022/12/11 19:02:20;;;;;;;0.70;0.70;;;2.20;99.90;1.50;100635.00;;;;5034934;28;20241;-74
2022/12/11 19:04:46;;;;;;;1.17;1.17;;;2.20;99.90;2.00;100631.00;;;;5034950;28;20194;-74
2022/12/11 19:07:12;;;;;;;0.70;0.70;;;2.30;99.90;1.80;100640.00;;;;5035191;28;20666;-73
2022/12/11 19:09:38;;;;;;;1.90;1.80;;;2.30;99.90;1.50;100630.00;;;;5019009;28;20190;-73
2022/12/11 19:12:06;;;;;;;7.00;2.00;;;2.20;99.90;2.00;100637.00;;;;5034280;28;20199;-73
2022/12/11 19:14:32;;;;;;;32.37;5.03;;;2.20;99.90;2.00;100574.00;;;;5033788;28;20194;-73
2022/12/11 19:17:07;;;;;;;3.27;1.47;;;2.40;99.90;1.40;100616.00;;;;5018411;28;20552;-74
2022/12/11 19:19:40;;;;;;;1.80;1.67;;;2.20;99.90;1.60;100642.00;;;;5034411;28;20213;-74
2022/12/11 19:22:05;;;;;;;1.27;1.17;;;2.10;99.90;1.60;100635.00;;;;5034790;28;20186;-74
2022/12/11 19:24:31;;;;;;;0.70;0.70;;;2.20;99.90;1.20;100638.00;;;;5034099;28;20240;-74
2022/12/11 19:26:57;;;;;;;2.17;2.07;;;2.20;99.90;1.80;100638.00;;;;5035727;28;20239;-74
2022/12/11 19:29:32;;;;;;;4.40;3.00;;;2.30;99.90;1.80;100639.00;;;;5035279;28;20193;-74
2022/12/11 19:32:03;;;;;;;3.17;2.50;;;2.40;99.90;1.40;100631.00;;;;5034300;28;20591;-73
2022/12/11 19:34:55;;;;;;;1.07;1.07;;;2.20;99.90;1.30;100629.00;;;;5035069;28;20584;-74
2022/12/11 19:37:31;;;;;;;0.97;0.97;;;2.00;99.90;1.40;100626.00;;;;5019523;28;20187;-74
2022/12/11 19:40:47;;;;;;;1.67;1.40;;;2.00;99.90;1.20;100557.00;;;;5034482;28;20197;-74